createdAt,value
2022-10-31T00:01:15.113Z,1631
2022-10-31T00:06:33.905Z,1629
2022-10-31T00:11:52.372Z,1624
2022-10-31T00:17:10.870Z,1617
2022-10-31T00:22:29.107Z,1618
2022-10-31T00:27:47.277Z,1619
2022-10-31T00:33:06.155Z,1611
2022-10-31T00:38:24.650Z,1609
2022-10-31T00:43:27.220Z,1610
2022-10-31T00:48:45.758Z,1614
2022-10-31T00:54:04.236Z,1617
2022-10-31T00:59:22.135Z,1620
2022-10-31T01:04:40.627Z,1621
2022-10-31T01:09:58.891Z,1625
2022-10-31T01:15:17.064Z,1622
2022-10-31T01:20:35.548Z,1614
2022-10-31T01:25:54.342Z,1617
2022-10-31T01:31:13.079Z,1611
2022-10-31T01:36:31.283Z,1599
2022-10-31T01:41:49.804Z,1596
2022-10-31T01:47:08.238Z,1645
2022-10-31T01:52:26.461Z,1615
2022-10-31T01:57:44.677Z,1608
2022-10-31T02:03:03.536Z,1614
2022-10-31T02:08:22.620Z,1627
2022-10-31T02:13:40.838Z,1631
2022-10-31T02:18:59.292Z,1615
2022-10-31T02:24:17.493Z,1601
2022-10-31T02:29:35.744Z,1593
2022-10-31T02:34:53.651Z,1586
2022-10-31T02:40:11.881Z,1593
2022-10-31T02:45:30.424Z,1596
2022-10-31T02:50:48.440Z,1582
2022-10-31T02:56:07.189Z,1575
2022-10-31T03:01:25.811Z,1571
2022-10-31T03:06:44.782Z,1605
2022-10-31T03:12:03.022Z,1606
2022-10-31T03:17:21.235Z,1600
2022-10-31T03:22:39.745Z,1603
2022-10-31T03:27:58.653Z,1585
2022-10-31T03:33:18.465Z,1583
2022-10-31T03:38:36.650Z,1576
2022-10-31T03:43:55.396Z,1576
2022-10-31T03:49:14.206Z,1573
2022-10-31T03:54:32.376Z,1560
2022-10-31T03:59:50.572Z,1567
2022-10-31T04:05:09.111Z,1569
2022-10-31T04:10:30.172Z,1570
2022-10-31T04:15:51.559Z,1582
2022-10-31T04:21:10.343Z,1589
2022-10-31T04:26:28.233Z,1591
2022-10-31T04:31:46.716Z,1575
2022-10-31T04:37:05.508Z,1579
2022-10-31T04:42:23.701Z,1612
2022-10-31T04:47:42.186Z,1607
2022-10-31T04:53:00.700Z,1587
2022-10-31T04:58:19.162Z,1581
2022-10-31T05:03:37.076Z,1559
2022-10-31T05:08:55.319Z,1553
2022-10-31T05:14:13.258Z,1557
2022-10-31T05:19:32.002Z,1557
2022-10-31T05:24:50.812Z,1550
2022-10-31T05:30:09.260Z,1540
2022-10-31T05:35:27.207Z,1537
2022-10-31T05:40:45.989Z,1526
2022-10-31T05:46:04.195Z,1543
2022-10-31T05:51:22.665Z,1548
2022-10-31T05:56:41.460Z,1524
2022-10-31T06:01:59.922Z,1021
2022-10-31T06:07:18.394Z,964
2022-10-31T06:12:37.201Z,1043
2022-10-31T06:17:55.695Z,1227
2022-10-31T06:23:13.909Z,1330
2022-10-31T06:28:32.102Z,1350
2022-10-31T06:33:50.316Z,1333
2022-10-31T06:39:08.789Z,1324
2022-10-31T06:44:27.337Z,1311
2022-10-31T06:49:45.806Z,1348
2022-10-31T06:55:04.022Z,1352
2022-10-31T07:00:22.504Z,1339
2022-10-31T07:05:40.709Z,1333
2022-10-31T07:10:59.363Z,1323
2022-10-31T07:16:17.866Z,1322
2022-10-31T07:21:36.631Z,1318
2022-10-31T07:26:55.437Z,1311
2022-10-31T07:32:13.465Z,1305
2022-10-31T07:37:31.363Z,1302
2022-10-31T07:42:50.159Z,1301
2022-10-31T07:48:09.071Z,1288
2022-10-31T07:53:27.240Z,1287
2022-10-31T07:58:46.031Z,1279
2022-10-31T08:04:03.972Z,1275
2022-10-31T08:09:22.145Z,1268
2022-10-31T08:14:40.099Z,1273
2022-10-31T08:19:58.319Z,1282
2022-10-31T08:25:16.223Z,1289
2022-10-31T08:30:34.446Z,1282
2022-10-31T08:35:53.239Z,1283
2022-10-31T08:41:11.421Z,1284
2022-10-31T08:46:30.196Z,1278
2022-10-31T08:51:48.726Z,1275
2022-10-31T08:57:06.680Z,1272
2022-10-31T09:02:25.216Z,1264
2022-10-31T09:07:43.762Z,1263
2022-10-31T09:13:01.939Z,1262
2022-10-31T09:18:20.469Z,1253
2022-10-31T09:23:38.951Z,1249
2022-10-31T09:28:57.147Z,1252
2022-10-31T09:34:15.623Z,1248
2022-10-31T09:39:33.596Z,1238
2022-10-31T09:44:52.052Z,1227
2022-10-31T09:50:10.266Z,1219
2022-10-31T09:55:28.515Z,1207
2022-10-31T10:00:46.766Z,1201
2022-10-31T10:06:04.981Z,1193
2022-10-31T10:11:23.459Z,1188
2022-10-31T10:16:41.662Z,1183
2022-10-31T10:22:00.416Z,1170
2022-10-31T10:27:20.618Z,1166
2022-10-31T10:32:41.724Z,1159
2022-10-31T10:37:50.042Z,1154
2022-10-31T10:43:14.078Z,1152
2022-10-31T10:48:32.838Z,1163
2022-10-31T10:53:35.401Z,1161
2022-10-31T10:58:53.637Z,1158
2022-10-31T11:04:11.810Z,1154
2022-10-31T11:09:30.321Z,1147
2022-10-31T11:14:49.138Z,1147
2022-10-31T11:19:51.977Z,1148
2022-10-31T11:25:10.459Z,1151
2022-10-31T11:30:29.005Z,1144
2022-10-31T11:35:48.386Z,1147
2022-10-31T11:41:16.113Z,1146
2022-10-31T11:46:34.619Z,1152
2022-10-31T11:51:52.798Z,1161
2022-10-31T11:57:11.321Z,1170
2022-10-31T12:02:29.872Z,1184
2022-10-31T12:07:48.332Z,1183
2022-10-31T12:13:06.283Z,1167
2022-10-31T12:18:24.791Z,1179
2022-10-31T12:23:42.682Z,1204
2022-10-31T12:29:01.449Z,1194
2022-10-31T12:34:19.410Z,1176
2022-10-31T12:39:37.912Z,1159
2022-10-31T12:44:57.616Z,1154
2022-10-31T12:50:16.400Z,1157
2022-10-31T12:55:34.705Z,1154
2022-10-31T13:00:53.512Z,1144
2022-10-31T13:06:11.858Z,1136
2022-10-31T13:11:30.046Z,1127
2022-10-31T13:16:33.195Z,1120
2022-10-31T13:21:51.680Z,1104
2022-10-31T13:27:09.883Z,1094
2022-10-31T13:32:28.063Z,1085
2022-10-31T13:37:49.775Z,1083
2022-10-31T13:43:12.970Z,1076
2022-10-31T13:48:31.176Z,1068
2022-10-31T13:53:49.392Z,1060
2022-10-31T13:59:07.856Z,1059
2022-10-31T14:04:26.751Z,1049
2022-10-31T14:09:46.128Z,1038
2022-10-31T14:15:04.037Z,1031
2022-10-31T14:20:22.800Z,1027
2022-10-31T14:25:41.322Z,1017
2022-10-31T14:30:59.776Z,1007
2022-10-31T14:36:19.926Z,1003
2022-10-31T14:41:38.597Z,993
2022-10-31T14:46:57.049Z,970
2022-10-31T14:52:15.816Z,957
2022-10-31T14:57:34.312Z,951
2022-10-31T15:02:52.498Z,953
2022-10-31T15:08:10.981Z,958
2022-10-31T15:13:29.514Z,954
2022-10-31T15:18:48.028Z,971
2022-10-31T15:24:06.805Z,1003
2022-10-31T15:29:25.347Z,1011
2022-10-31T15:34:43.775Z,1003
2022-10-31T15:39:46.103Z,992
2022-10-31T15:45:04.894Z,990
2022-10-31T15:50:23.088Z,994
2022-10-31T15:55:41.561Z,993
2022-10-31T16:00:59.543Z,999
2022-10-31T16:06:18.129Z,998
2022-10-31T16:11:36.343Z,998
2022-10-31T16:16:54.863Z,1026
2022-10-31T16:22:13.595Z,1047
2022-10-31T16:27:31.827Z,1056
2022-10-31T16:32:50.626Z,1077
2022-10-31T16:38:09.093Z,1086
2022-10-31T16:43:27.463Z,1092
2022-10-31T16:48:45.410Z,1096
2022-10-31T16:54:04.161Z,1097
2022-10-31T16:59:22.902Z,1107
2022-10-31T17:04:41.679Z,1112
2022-10-31T17:09:59.936Z,1120
2022-10-31T17:15:18.351Z,1132
2022-10-31T17:20:36.881Z,1142
2022-10-31T17:25:55.357Z,1152
2022-10-31T17:31:13.579Z,1160
2022-10-31T17:36:32.377Z,1170
2022-10-31T17:41:50.592Z,1169
2022-10-31T17:47:09.328Z,1175
2022-10-31T17:52:27.577Z,1180
2022-10-31T17:57:45.780Z,1182
2022-10-31T18:03:04.216Z,1193
2022-10-31T18:08:23.671Z,1205
2022-10-31T18:13:42.412Z,1201
2022-10-31T18:19:00.620Z,1202
2022-10-31T18:24:19.139Z,1215
2022-10-31T18:29:37.340Z,1244
2022-10-31T18:34:55.812Z,1250
2022-10-31T18:40:14.349Z,1281
2022-10-31T18:45:45.692Z,1304
2022-10-31T18:51:14.563Z,1316
2022-10-31T18:56:32.780Z,1344
2022-10-31T19:01:35.455Z,1376
2022-10-31T19:06:54.193Z,961
2022-10-31T19:12:13.068Z,1040
2022-10-31T19:17:15.624Z,1230
2022-10-31T19:22:34.409Z,1324
2022-10-31T19:27:52.906Z,1345
2022-10-31T19:32:55.472Z,1352
2022-10-31T19:38:14.279Z,1344
2022-10-31T19:43:33.047Z,1364
2022-10-31T19:48:50.950Z,1352
2022-10-31T19:54:09.708Z,1435
2022-10-31T19:59:28.507Z,1473
2022-10-31T20:04:46.982Z,1510
2022-10-31T20:10:05.780Z,1494
2022-10-31T20:15:23.678Z,1538
2022-10-31T20:20:41.848Z,1569
2022-10-31T20:25:59.727Z,1586
2022-10-31T20:31:17.945Z,1602
2022-10-31T20:36:36.473Z,1612
2022-10-31T20:41:54.391Z,1605
2022-10-31T20:47:13.185Z,1598
2022-10-31T20:52:31.686Z,1593
2022-10-31T20:57:34.529Z,1612
2022-10-31T21:02:53.331Z,1614
2022-10-31T21:08:11.520Z,1624
2022-10-31T21:13:30.284Z,1646
2022-10-31T21:18:48.868Z,1645
2022-10-31T21:24:07.813Z,1642
2022-10-31T21:29:26.314Z,1654
2022-10-31T21:34:45.096Z,1664
2022-10-31T21:40:03.552Z,1665
2022-10-31T21:45:22.008Z,1677
2022-10-31T21:50:40.225Z,1690
2022-10-31T21:55:58.392Z,1693
2022-10-31T22:01:17.308Z,1696
2022-10-31T22:06:35.795Z,1701
2022-10-31T22:11:53.661Z,1697
2022-10-31T22:17:12.189Z,1723
2022-10-31T22:22:30.383Z,1723
2022-10-31T22:27:48.892Z,1716
2022-10-31T22:33:07.637Z,1704
2022-10-31T22:38:25.863Z,1695
2022-10-31T22:43:44.070Z,1683
2022-10-31T22:49:02.545Z,1676
2022-10-31T22:54:21.332Z,1673
2022-10-31T22:59:40.062Z,1674
2022-10-31T23:04:58.020Z,1674
2022-10-31T23:10:16.525Z,1670
2022-10-31T23:15:34.711Z,1674
2022-10-31T23:20:53.456Z,1669
2022-10-31T23:26:12.241Z,1675
2022-10-31T23:31:30.997Z,1710
2022-10-31T23:36:49.504Z,1735
2022-10-31T23:42:07.459Z,1763
2022-10-31T23:47:25.929Z,1762
2022-10-31T23:52:44.666Z,1756
2022-10-31T23:58:03.520Z,1754
